createdAt,value
2022-10-06T00:00:03.790Z,1006.2
2022-10-06T00:01:04.769Z,1006.3
2022-10-06T00:02:05.811Z,1006.2
2022-10-06T00:03:06.834Z,1006.2
2022-10-06T00:04:07.750Z,1006.2
2022-10-06T00:05:08.830Z,1006.2
2022-10-06T00:06:09.820Z,1006.2
2022-10-06T00:07:10.840Z,1006.2
2022-10-06T00:08:11.840Z,1006.2
2022-10-06T00:09:12.830Z,1006.2
2022-10-06T00:10:13.831Z,1006.2
2022-10-06T00:11:14.860Z,1006.2
2022-10-06T00:12:15.791Z,1006.3
2022-10-06T00:13:16.792Z,1006.3
2022-10-06T00:14:17.782Z,1006.2
2022-10-06T00:15:18.832Z,1006.2
2022-10-06T00:16:19.859Z,1006.2
2022-10-06T00:17:20.871Z,1006.2
2022-10-06T00:18:21.811Z,1006.3
2022-10-06T00:19:22.811Z,1006.3
2022-10-06T00:20:23.890Z,1006.3
2022-10-06T00:21:24.833Z,1006.2
2022-10-06T00:22:25.912Z,1006.3
2022-10-06T00:23:27.788Z,1006.2
2022-10-06T00:24:28.796Z,1006.3
2022-10-06T00:25:29.826Z,1006.3
2022-10-06T00:26:30.838Z,1006.3
2022-10-06T00:27:31.804Z,1006.2
2022-10-06T00:28:33.483Z,1006.3
2022-10-06T00:29:34.872Z,1006.3
2022-10-06T00:30:36.870Z,1006.3
2022-10-06T00:31:38.872Z,1006.3
2022-10-06T00:32:40.890Z,1006.3
2022-10-06T00:33:41.834Z,1006.3
2022-10-06T00:34:42.920Z,1006.3
2022-10-06T00:35:44.811Z,1006.3
2022-10-06T00:36:45.852Z,1006.3
2022-10-06T00:37:46.868Z,1006.3
2022-10-06T00:38:47.831Z,1006.3
2022-10-06T00:39:49.153Z,1006.3
2022-10-06T00:40:50.924Z,1006.3
2022-10-06T00:41:52.950Z,1006.2
2022-10-06T00:42:54.892Z,1006.3
2022-10-06T00:43:56.997Z,1006.3
2022-10-06T00:44:58.898Z,1006.3
2022-10-06T00:46:00.878Z,1006.3
2022-10-06T00:47:02.840Z,1006.3
2022-10-06T00:48:04.850Z,1006.3
2022-10-06T00:49:06.833Z,1006.3
2022-10-06T00:50:08.822Z,1006.3
2022-10-06T00:51:09.825Z,1006.3
2022-10-06T00:52:10.812Z,1006.3
2022-10-06T00:53:11.809Z,1006.3
2022-10-06T00:54:12.849Z,1006.3
2022-10-06T00:55:13.834Z,1006.4
2022-10-06T00:56:15.795Z,1006.3
2022-10-06T00:57:16.819Z,1006.3
2022-10-06T00:58:17.858Z,1006.3
2022-10-06T00:59:18.835Z,1006.3
2022-10-06T01:00:19.931Z,1006.3
2022-10-06T01:04:23.998Z,1006.1
2022-10-06T01:05:25.977Z,1006.2
2022-10-06T01:06:27.927Z,1006.3
2022-10-06T01:07:30.019Z,1006.3
2022-10-06T01:08:32.210Z,1006.3
2022-10-06T01:09:33.958Z,1006.3
2022-10-06T01:10:35.958Z,1006.3
2022-10-06T01:11:37.922Z,1006.3
2022-10-06T01:12:39.838Z,1006.3
2022-10-06T01:13:40.959Z,1006.3
2022-10-06T01:14:43.418Z,1006.3
2022-10-06T01:15:44.971Z,1006.3
2022-10-06T01:16:46.906Z,1006.4
2022-10-06T01:17:49.259Z,1006.4
2022-10-06T01:18:50.880Z,1006.4
2022-10-06T01:19:52.878Z,1006.3
2022-10-06T01:20:53.959Z,1006.3
2022-10-06T01:21:56.000Z,1006.4
2022-10-06T01:22:57.938Z,1006.4
2022-10-06T01:23:59.815Z,1006.4
2022-10-06T01:25:00.962Z,1006.4
2022-10-06T01:26:02.954Z,1006.3
2022-10-06T01:27:04.858Z,1006.3
2022-10-06T01:28:05.987Z,1006.3
2022-10-06T01:29:07.918Z,1006.4
2022-10-06T01:30:09.940Z,1006.3
2022-10-06T01:31:12.039Z,1006.3
2022-10-06T01:32:13.814Z,1006.3
2022-10-06T01:33:15.938Z,1006.3
2022-10-06T01:34:17.763Z,1006.3
2022-10-06T01:35:18.803Z,1006.3
2022-10-06T01:36:19.841Z,1006.3
2022-10-06T01:37:20.819Z,1006.4
2022-10-06T01:38:22.150Z,1006.4
2022-10-06T01:39:23.879Z,1006.4
2022-10-06T01:40:24.898Z,1006.4
2022-10-06T01:41:25.868Z,1006.4
2022-10-06T01:42:26.903Z,1006.4
2022-10-06T01:43:27.881Z,1006.4
2022-10-06T01:44:28.818Z,1006.4
2022-10-06T01:45:29.858Z,1006.4
2022-10-06T01:46:30.901Z,1006.4
2022-10-06T01:47:31.798Z,1006.4
2022-10-06T01:48:33.006Z,1006.4
2022-10-06T01:49:34.938Z,1006.4
2022-10-06T01:50:36.898Z,1006.4
2022-10-06T01:51:38.899Z,1006.5
2022-10-06T01:52:40.939Z,1006.5
2022-10-06T01:53:42.879Z,1006.5
2022-10-06T01:54:43.818Z,1006.5
2022-10-06T01:55:44.900Z,1006.5
2022-10-06T01:56:45.818Z,1006.4
2022-10-06T01:57:46.943Z,1006.4
2022-10-06T01:58:47.806Z,1006.4
2022-10-06T01:59:53.921Z,1006.5
2022-10-06T02:00:50.878Z,1006.5
2022-10-06T02:01:51.891Z,1006.5
2022-10-06T02:02:52.849Z,1006.5
2022-10-06T02:03:53.878Z,1006.5
2022-10-06T02:04:54.879Z,1006.5
2022-10-06T02:05:55.939Z,1006.5
2022-10-06T02:06:56.858Z,1006.5
2022-10-06T02:07:57.859Z,1006.5
2022-10-06T02:08:58.939Z,1006.5
2022-10-06T02:10:00.959Z,1006.6
2022-10-06T02:11:02.860Z,1006.6
2022-10-06T02:12:04.778Z,1006.6
2022-10-06T02:13:05.923Z,1006.6
2022-10-06T02:14:07.090Z,1006.6
2022-10-06T02:15:08.919Z,1006.6
2022-10-06T02:16:09.888Z,1006.6
2022-10-06T02:17:10.881Z,1006.6
2022-10-06T02:18:11.887Z,1006.7
2022-10-06T02:19:12.966Z,1006.6
2022-10-06T02:20:13.928Z,1006.6
2022-10-06T02:21:15.868Z,1006.6
2022-10-06T02:22:16.828Z,1006.6
2022-10-06T02:23:17.880Z,1006.6
2022-10-06T02:24:18.899Z,1006.6
2022-10-06T02:25:19.900Z,1006.7
2022-10-06T02:26:20.910Z,1006.7
2022-10-06T02:27:21.858Z,1006.7
2022-10-06T02:28:22.884Z,1006.7
2022-10-06T02:29:23.938Z,1006.7
2022-10-06T02:30:25.898Z,1006.7
2022-10-06T02:31:26.910Z,1006.8
2022-10-06T02:32:27.898Z,1006.7
2022-10-06T02:33:28.818Z,1006.8
2022-10-06T02:34:29.959Z,1006.8
2022-10-06T02:35:31.886Z,1006.7
2022-10-06T02:36:32.859Z,1006.7
2022-10-06T02:37:33.827Z,1006.8
2022-10-06T02:38:34.920Z,1006.8
2022-10-06T02:39:35.901Z,1006.8
2022-10-06T02:40:36.942Z,1006.8
2022-10-06T02:41:38.898Z,1006.8
2022-10-06T02:42:39.886Z,1006.8
2022-10-06T02:43:40.905Z,1006.8
2022-10-06T02:44:41.958Z,1006.8
2022-10-06T02:45:43.947Z,1006.8
2022-10-06T02:46:45.042Z,1006.9
2022-10-06T02:47:47.218Z,1006.9
2022-10-06T02:48:48.910Z,1006.9
2022-10-06T02:49:50.882Z,1006.8
2022-10-06T02:50:51.859Z,1006.9
2022-10-06T02:51:52.978Z,1006.9
2022-10-06T02:52:54.899Z,1006.9
2022-10-06T02:53:55.897Z,1006.9
2022-10-06T02:54:56.896Z,1006.9
2022-10-06T02:55:57.878Z,1006.9
2022-10-06T02:56:58.906Z,1007
2022-10-06T02:57:59.880Z,1007
2022-10-06T02:59:00.951Z,1006.9
2022-10-06T03:00:02.017Z,1006.9
2022-10-06T03:01:03.882Z,1006.9
2022-10-06T03:02:06.054Z,1006.9
2022-10-06T03:03:06.945Z,1006.9
2022-10-06T03:04:07.878Z,1006.9
2022-10-06T03:05:08.898Z,1006.9
2022-10-06T03:06:09.899Z,1007
2022-10-06T03:07:10.900Z,1007
2022-10-06T03:08:12.927Z,1007
2022-10-06T03:09:13.920Z,1007
2022-10-06T03:10:14.939Z,1007
2022-10-06T03:11:15.907Z,1007
2022-10-06T03:12:16.930Z,1007
2022-10-06T03:13:17.878Z,1007
2022-10-06T03:14:21.762Z,1007
2022-10-06T03:15:19.958Z,1007
2022-10-06T03:16:20.946Z,1007
2022-10-06T03:17:21.918Z,1007.1
2022-10-06T03:18:22.878Z,1007.1
2022-10-06T03:19:23.878Z,1007.1
2022-10-06T03:20:24.958Z,1007.1
2022-10-06T03:21:25.927Z,1007.2
2022-10-06T03:22:26.963Z,1007.1
2022-10-06T03:23:27.922Z,1007.1
2022-10-06T03:24:29.978Z,1007.1
2022-10-06T03:25:31.879Z,1007.2
2022-10-06T03:26:32.917Z,1007.2
2022-10-06T03:27:34.939Z,1007.2
2022-10-06T03:28:36.958Z,1007.2
2022-10-06T03:29:38.981Z,1007.2
2022-10-06T03:30:39.859Z,1007.2
2022-10-06T03:31:40.926Z,1007.2
2022-10-06T03:32:41.872Z,1007.2
2022-10-06T03:33:42.918Z,1007.3
2022-10-06T03:34:45.038Z,1007.2
2022-10-06T03:35:46.866Z,1007.3
2022-10-06T03:36:47.880Z,1007.2
2022-10-06T03:37:48.898Z,1007.3
2022-10-06T03:38:49.898Z,1007.3
2022-10-06T03:39:50.938Z,1007.3
2022-10-06T03:40:51.898Z,1007.3
2022-10-06T03:41:52.939Z,1007.3
2022-10-06T03:42:53.898Z,1007.3
2022-10-06T03:43:54.906Z,1007.3
2022-10-06T03:44:55.972Z,1007.3
2022-10-06T03:45:56.946Z,1007.3
2022-10-06T03:46:57.943Z,1007.3
2022-10-06T03:47:58.907Z,1007.3
2022-10-06T03:48:59.958Z,1007.4
2022-10-06T03:50:00.918Z,1007.3
2022-10-06T03:51:01.918Z,1007.4
2022-10-06T03:52:02.888Z,1007.4
2022-10-06T03:53:03.878Z,1007.4
2022-10-06T03:54:04.919Z,1007.4
2022-10-06T03:55:05.978Z,1007.4
2022-10-06T03:56:06.959Z,1007.4
2022-10-06T03:57:07.903Z,1007.4
2022-10-06T03:58:08.917Z,1007.5
2022-10-06T03:59:09.878Z,1007.5
2022-10-06T04:00:10.977Z,1007.4
2022-10-06T04:01:11.958Z,1007.5
2022-10-06T04:02:12.946Z,1007.5
2022-10-06T04:03:13.958Z,1007.5
2022-10-06T04:04:14.980Z,1007.6
2022-10-06T04:05:15.898Z,1007.6
2022-10-06T04:06:16.943Z,1007.5
2022-10-06T04:07:18.958Z,1007.5
2022-10-06T04:08:20.980Z,1007.5
2022-10-06T04:09:22.978Z,1007.5
2022-10-06T04:10:24.959Z,1007.6
2022-10-06T04:11:25.920Z,1007.6
2022-10-06T04:12:26.879Z,1007.7
2022-10-06T04:13:27.938Z,1007.6
2022-10-06T04:14:29.362Z,1007.6
2022-10-06T04:15:30.911Z,1007.6
2022-10-06T04:16:32.024Z,1007.6
2022-10-06T04:17:33.918Z,1007.6
2022-10-06T04:18:34.939Z,1007.6
2022-10-06T04:19:35.925Z,1007.6
2022-10-06T04:20:36.980Z,1007.6
2022-10-06T04:21:37.918Z,1007.6
2022-10-06T04:22:38.919Z,1007.6
2022-10-06T04:23:39.879Z,1007.6
2022-10-06T04:24:40.877Z,1007.6
2022-10-06T04:25:41.938Z,1007.6
2022-10-06T04:26:42.958Z,1007.5
2022-10-06T04:27:43.919Z,1007.6
2022-10-06T04:28:44.944Z,1007.6
2022-10-06T04:29:45.861Z,1007.6
2022-10-06T04:30:47.042Z,1007.6
2022-10-06T04:31:48.941Z,1007.7
2022-10-06T04:32:49.959Z,1007.7
2022-10-06T04:33:51.919Z,1007.7
2022-10-06T04:34:52.887Z,1007.7
2022-10-06T04:35:53.960Z,1007.7
2022-10-06T04:36:54.896Z,1007.7
2022-10-06T04:37:55.918Z,1007.7
2022-10-06T04:38:56.894Z,1007.8
2022-10-06T04:39:57.958Z,1007.8
2022-10-06T04:40:58.901Z,1007.8
2022-10-06T04:41:59.910Z,1007.8
2022-10-06T04:43:00.905Z,1007.8
2022-10-06T04:44:01.940Z,1007.8
2022-10-06T04:45:03.007Z,1007.8
2022-10-06T04:46:18.335Z,1007.8
2022-10-06T04:47:04.979Z,1007.9
2022-10-06T04:48:05.887Z,1007.9
2022-10-06T04:49:06.958Z,1007.8
2022-10-06T04:50:08.040Z,1007.9
2022-10-06T04:51:09.939Z,1007.9
2022-10-06T04:52:10.959Z,1007.9
2022-10-06T04:53:11.999Z,1007.9
2022-10-06T04:54:13.958Z,1007.9
2022-10-06T04:55:15.007Z,1008
2022-10-06T04:56:16.967Z,1008
2022-10-06T04:57:18.000Z,1008
2022-10-06T04:58:18.906Z,1008
2022-10-06T04:59:19.960Z,1008.1
2022-10-06T05:00:20.959Z,1008
2022-10-06T05:01:22.006Z,1008.1
2022-10-06T05:02:22.968Z,1008.1
2022-10-06T05:03:23.890Z,1008.1
2022-10-06T05:04:24.950Z,1008.2
2022-10-06T05:05:25.957Z,1008.2
2022-10-06T05:06:27.018Z,1008.2
2022-10-06T05:07:27.968Z,1008.1
2022-10-06T05:08:29.266Z,1007.5
2022-10-06T05:09:29.951Z,1008.1
2022-10-06T05:10:30.890Z,1008.2
2022-10-06T05:11:31.939Z,1008.3
2022-10-06T05:12:32.943Z,1008.3
2022-10-06T05:13:34.039Z,1008.3
2022-10-06T05:14:36.007Z,1008.3
2022-10-06T05:15:38.005Z,1008.4
2022-10-06T05:16:39.049Z,1008.4
2022-10-06T05:17:39.975Z,1008.4
2022-10-06T05:18:40.944Z,1008.4
2022-10-06T05:19:41.939Z,1008.3
2022-10-06T05:20:42.939Z,1008.4
2022-10-06T05:21:44.295Z,1008.3
2022-10-06T05:22:48.081Z,1008.4
2022-10-06T05:23:53.069Z,1008.4
2022-10-06T05:24:56.517Z,1008.4
2022-10-06T05:26:01.174Z,1008.5
2022-10-06T05:27:03.996Z,1008.5
2022-10-06T05:28:06.047Z,1008.4
2022-10-06T05:29:06.960Z,1008.4
2022-10-06T05:30:07.990Z,1008.4
2022-10-06T05:31:09.235Z,1008.4
2022-10-06T05:32:10.983Z,1008.4
2022-10-06T05:33:11.999Z,1008.4
2022-10-06T05:34:12.979Z,1008.4
2022-10-06T05:35:13.959Z,1008.5
2022-10-06T05:36:14.960Z,1008.4
2022-10-06T05:37:15.958Z,1008.4
2022-10-06T05:38:16.999Z,1008.4
2022-10-06T05:39:17.998Z,1008.4
2022-10-06T05:40:18.921Z,1008.4
2022-10-06T05:41:19.980Z,1008.4
2022-10-06T05:42:20.994Z,1008.4
2022-10-06T05:43:21.981Z,1008.5
2022-10-06T05:44:22.998Z,1008.5
2022-10-06T05:45:23.919Z,1008.6
2022-10-06T05:46:25.218Z,1008.5
2022-10-06T05:47:26.045Z,1008.5
2022-10-06T05:48:27.346Z,1008.5
2022-10-06T05:49:28.378Z,1008.5
2022-10-06T05:50:29.959Z,1008.5
2022-10-06T05:51:31.480Z,1008.6
2022-10-06T05:52:31.959Z,1008.5
2022-10-06T05:53:32.986Z,1008.6
2022-10-06T05:54:34.058Z,1008.6
2022-10-06T05:55:35.040Z,1008.6
2022-10-06T05:56:36.044Z,1008.6
2022-10-06T05:57:37.000Z,1008.6
2022-10-06T05:58:38.008Z,1008.7
2022-10-06T05:59:38.979Z,1008.7
2022-10-06T06:00:39.999Z,1008.8
2022-10-06T06:01:41.066Z,1008.8
2022-10-06T06:02:42.074Z,1008.8
2022-10-06T06:03:43.019Z,1008.8
2022-10-06T06:04:43.939Z,1008.9
2022-10-06T06:05:45.087Z,1008.9
2022-10-06T06:06:46.005Z,1009
2022-10-06T06:07:46.995Z,1008.9
2022-10-06T06:08:48.046Z,1008.9
2022-10-06T06:09:48.939Z,1009
2022-10-06T06:10:50.042Z,1009
2022-10-06T06:11:51.298Z,1009
2022-10-06T06:12:53.039Z,1009
2022-10-06T06:13:53.999Z,1008.9
2022-10-06T06:14:55.004Z,1009
2022-10-06T06:15:55.941Z,1009
2022-10-06T06:16:57.096Z,1009
2022-10-06T06:17:58.082Z,1009.1
2022-10-06T06:19:00.019Z,1009.1
2022-10-06T06:20:00.980Z,1009.1
2022-10-06T06:21:02.019Z,1009
2022-10-06T06:22:02.989Z,1009.1
2022-10-06T06:23:04.004Z,1009.1
2022-10-06T06:24:04.980Z,1009.1
2022-10-06T06:25:06.017Z,1009.1
2022-10-06T06:26:07.027Z,1009.2
2022-10-06T06:27:08.000Z,1009.2
2022-10-06T06:28:09.155Z,1009.2
2022-10-06T06:29:10.022Z,1009.2
2022-10-06T06:30:11.008Z,1009.2
2022-10-06T06:31:15.084Z,1009.2
2022-10-06T06:32:13.064Z,1009.2
2022-10-06T06:33:14.083Z,1009.3
2022-10-06T06:34:15.019Z,1009.3
2022-10-06T06:35:16.052Z,1009.3
2022-10-06T06:36:18.040Z,1009.3
2022-10-06T06:37:18.944Z,1009.3
2022-10-06T06:38:20.020Z,1009.4
2022-10-06T06:39:20.978Z,1009.4
2022-10-06T06:40:22.019Z,1009.4
2022-10-06T06:41:22.936Z,1009.4
2022-10-06T06:42:24.018Z,1009.4
2022-10-06T06:43:25.019Z,1009.4
2022-10-06T06:44:26.000Z,1009.4
2022-10-06T06:45:27.021Z,1009.5
2022-10-06T06:46:28.191Z,1009.4
2022-10-06T06:47:29.019Z,1008.9
2022-10-06T06:48:30.301Z,1009.3
2022-10-06T06:49:31.038Z,1009.4
2022-10-06T06:50:31.979Z,1009.4
2022-10-06T06:51:32.999Z,1009.4
2022-10-06T06:52:34.139Z,1009.5
2022-10-06T06:53:35.966Z,1009.5
2022-10-06T06:54:37.035Z,1009.5
2022-10-06T06:55:37.998Z,1009.5
2022-10-06T06:56:39.038Z,1009.6
2022-10-06T06:57:40.019Z,1009.6
2022-10-06T06:58:41.019Z,1009.6
2022-10-06T06:59:41.999Z,1009.6
2022-10-06T07:00:44.830Z,1009.7
2022-10-06T07:01:48.003Z,1009.7
2022-10-06T07:02:48.989Z,1009.6
2022-10-06T07:03:57.395Z,1009.6
2022-10-06T07:04:51.524Z,1009.6
2022-10-06T07:05:53.058Z,1009.6
2022-10-06T07:06:54.961Z,1009.7
2022-10-06T07:07:55.999Z,1009.7
2022-10-06T07:08:57.039Z,1009.7
2022-10-06T07:09:58.088Z,1009.7
2022-10-06T07:11:00.019Z,1009.8
2022-10-06T07:12:01.118Z,1009.7
2022-10-06T07:13:04.262Z,1009.7
2022-10-06T07:14:07.018Z,1009.8
2022-10-06T07:15:08.099Z,1009.8
2022-10-06T07:16:09.105Z,1009.8
2022-10-06T07:17:10.058Z,1009.9
2022-10-06T07:18:11.060Z,1009.9
2022-10-06T07:19:12.281Z,1009.9
2022-10-06T07:20:14.038Z,1009.8
2022-10-06T07:21:15.068Z,1009.8
2022-10-06T07:22:16.038Z,1009.8
2022-10-06T07:23:17.018Z,1009.9
2022-10-06T07:24:18.106Z,1010
2022-10-06T07:25:24.493Z,1010
2022-10-06T07:26:21.041Z,1010
2022-10-06T07:27:22.060Z,1009.9
2022-10-06T07:28:23.090Z,1010
2022-10-06T07:29:24.047Z,1010
2022-10-06T07:30:25.038Z,1010
2022-10-06T07:31:26.164Z,1010
2022-10-06T07:32:27.080Z,1010
2022-10-06T07:33:28.058Z,1010.1
2022-10-06T07:34:29.132Z,1010.1
2022-10-06T07:35:30.060Z,1010.1
2022-10-06T07:36:31.440Z,1010.1
2022-10-06T07:37:33.109Z,1010.1
2022-10-06T07:38:34.000Z,1010.1
2022-10-06T07:39:35.014Z,1010.1
2022-10-06T07:40:36.059Z,1010.1
2022-10-06T07:41:37.039Z,1010.1
2022-10-06T07:42:38.039Z,1010.1
2022-10-06T07:43:40.038Z,1010.2
2022-10-06T07:44:41.062Z,1010.1
2022-10-06T07:45:42.310Z,1010.1
2022-10-06T07:46:43.079Z,1010.2
2022-10-06T07:47:44.135Z,1010.2
2022-10-06T07:48:45.119Z,1010.2
2022-10-06T07:49:47.112Z,1010.1
2022-10-06T07:50:48.142Z,1010.1
2022-10-06T07:51:49.999Z,1010.2
2022-10-06T07:52:51.601Z,1010.2
2022-10-06T07:53:53.078Z,1010.2
2022-10-06T07:54:54.302Z,1010.3
2022-10-06T07:55:55.043Z,1010.3
2022-10-06T07:56:56.039Z,1010.3
2022-10-06T07:57:57.043Z,1010.2
2022-10-06T07:58:58.061Z,1010.3
2022-10-06T08:00:02.765Z,1010.3
2022-10-06T08:01:00.109Z,1010.3
2022-10-06T08:02:01.110Z,1010.3
2022-10-06T08:03:02.148Z,1010.3
2022-10-06T08:04:03.098Z,1010.4
2022-10-06T08:05:04.177Z,1010.4
2022-10-06T08:06:08.038Z,1010.4
2022-10-06T08:07:09.099Z,1010.4
2022-10-06T08:08:10.060Z,1010.5
2022-10-06T08:09:11.139Z,1010.5
2022-10-06T08:10:12.119Z,1010.5
2022-10-06T08:11:13.059Z,1010.5
2022-10-06T08:12:14.186Z,1010.5
2022-10-06T08:13:16.102Z,1010.6
2022-10-06T08:14:17.119Z,1010.6
2022-10-06T08:15:17.999Z,1010.6
2022-10-06T08:16:19.093Z,1010.6
2022-10-06T08:17:20.079Z,1010.6
2022-10-06T08:18:41.317Z,1010.6
2022-10-06T08:19:23.060Z,1010.6
2022-10-06T08:20:24.116Z,1010.7
2022-10-06T08:21:25.060Z,1010.7
2022-10-06T08:22:26.073Z,1010.7
2022-10-06T08:23:27.098Z,1010.7
2022-10-06T08:24:30.698Z,1010.7
2022-10-06T08:25:29.050Z,1010.7
2022-10-06T08:26:30.059Z,1010.7
2022-10-06T08:27:31.081Z,1010.7
2022-10-06T08:28:32.114Z,1010.8
2022-10-06T08:29:33.036Z,1010.8
2022-10-06T08:30:34.179Z,1010.8
2022-10-06T08:31:36.205Z,1010.8
2022-10-06T08:32:38.179Z,1010.8
2022-10-06T08:33:40.040Z,1010.9
2022-10-06T08:34:41.080Z,1010.9
2022-10-06T08:35:42.230Z,1010.9
2022-10-06T08:36:56.890Z,1010.9
2022-10-06T08:37:46.002Z,1011
2022-10-06T08:38:47.119Z,1011
2022-10-06T08:39:48.096Z,1011
2022-10-06T08:40:49.434Z,1011.1
2022-10-06T08:41:51.104Z,1011
2022-10-06T08:42:53.046Z,1011.1
2022-10-06T08:43:54.079Z,1011.1
2022-10-06T08:44:55.329Z,1011.1
2022-10-06T08:45:56.073Z,1011.1
2022-10-06T08:46:58.079Z,1011.2
2022-10-06T08:47:59.139Z,1011.1
2022-10-06T08:49:00.077Z,1011.1
2022-10-06T08:50:01.106Z,1011.2
2022-10-06T08:51:02.152Z,1011.2
2022-10-06T08:52:03.198Z,1011.2
2022-10-06T08:53:05.171Z,1011.2
2022-10-06T08:54:07.267Z,1011.2
2022-10-06T08:55:09.121Z,1011.2
2022-10-06T08:56:10.079Z,1011.2
2022-10-06T08:57:11.081Z,1011.3
2022-10-06T08:58:12.054Z,1011.3
2022-10-06T08:59:13.119Z,1011.3
2022-10-06T09:00:16.781Z,1011.3
2022-10-06T09:01:16.197Z,1011.4
2022-10-06T09:02:18.192Z,1011.4
2022-10-06T09:03:20.122Z,1011.4
2022-10-06T09:04:21.079Z,1011.4
2022-10-06T09:05:22.159Z,1011.4
2022-10-06T09:06:23.180Z,1011.5
2022-10-06T09:07:24.138Z,1011.5
2022-10-06T09:08:25.142Z,1011.4
2022-10-06T09:09:26.170Z,1011.3
2022-10-06T09:10:27.158Z,1011.3
2022-10-06T09:11:29.098Z,1011.4
2022-10-06T09:12:30.158Z,1011.3
2022-10-06T09:13:31.099Z,1011.4
2022-10-06T09:14:32.139Z,1011.5
2022-10-06T09:15:33.159Z,1011.5
2022-10-06T09:16:35.194Z,1011.6
2022-10-06T09:17:37.147Z,1011.6
2022-10-06T09:18:56.388Z,1011.6
2022-10-06T09:19:40.082Z,1011.6
2022-10-06T09:20:41.120Z,1011.6
2022-10-06T09:21:42.179Z,1011.6
2022-10-06T09:22:43.120Z,1011.6
2022-10-06T09:23:44.203Z,1011.7
2022-10-06T09:24:47.447Z,1011.7
2022-10-06T09:25:48.115Z,1011.7
2022-10-06T09:26:49.089Z,1011.7
2022-10-06T09:27:50.139Z,1011.7
2022-10-06T09:28:51.123Z,1011.7
2022-10-06T09:29:52.247Z,1011.7
2022-10-06T09:30:55.336Z,1011.8
2022-10-06T09:31:54.108Z,1011.7
2022-10-06T09:32:55.120Z,1011.7
2022-10-06T09:33:56.158Z,1011.8
2022-10-06T09:34:57.121Z,1011.7
2022-10-06T09:35:58.065Z,1011.7
2022-10-06T09:37:01.509Z,1011.8
2022-10-06T09:38:02.274Z,1011.9
2022-10-06T09:39:01.141Z,1011.9
2022-10-06T09:40:02.239Z,1012
2022-10-06T09:41:04.116Z,1011.9
2022-10-06T09:42:05.059Z,1012
2022-10-06T09:43:06.159Z,1012
2022-10-06T09:44:07.099Z,1012.1
2022-10-06T09:45:08.199Z,1012.1
2022-10-06T09:47:11.069Z,1012.1
2022-10-06T09:48:12.098Z,1012.1
2022-10-06T09:49:13.107Z,1012.2
2022-10-06T09:50:14.163Z,1012.1
2022-10-06T09:51:15.085Z,1012.2
2022-10-06T09:52:16.027Z,1012.1
2022-10-06T09:53:17.089Z,1012.2
2022-10-06T09:54:18.118Z,1012.2
2022-10-06T09:55:19.039Z,1012.2
2022-10-06T09:56:20.019Z,1012.2
2022-10-06T09:57:21.482Z,1012.3
2022-10-06T09:58:23.121Z,1012.3
2022-10-06T09:59:24.099Z,1012.3
2022-10-06T10:00:25.159Z,1012.3
2022-10-06T10:01:26.107Z,1012.3
2022-10-06T10:02:27.295Z,1012.3
2022-10-06T10:03:28.099Z,1012.4
2022-10-06T10:04:29.167Z,1012.4
2022-10-06T10:05:30.119Z,1012.4
2022-10-06T10:06:31.104Z,1012.5
2022-10-06T10:07:32.123Z,1012.5
2022-10-06T10:09:34.199Z,1012.6
2022-10-06T10:10:36.198Z,1012.6
2022-10-06T10:11:38.147Z,1012.6
2022-10-06T10:12:39.039Z,1012.7
2022-10-06T10:13:40.035Z,1012.7
2022-10-06T10:14:41.178Z,1012.7
2022-10-06T10:15:42.097Z,1012.7
2022-10-06T10:16:43.159Z,1012.7
2022-10-06T10:17:44.140Z,1012.7
2022-10-06T10:18:45.180Z,1012.7
2022-10-06T10:19:46.139Z,1012.8
2022-10-06T10:20:47.168Z,1012.1
2022-10-06T10:21:48.185Z,1012.6
2022-10-06T10:22:49.149Z,1012.7
2022-10-06T10:23:50.173Z,1012.8
2022-10-06T10:24:52.200Z,1012.9
2022-10-06T10:25:54.139Z,1012.8
2022-10-06T10:26:55.398Z,1012.8
2022-10-06T10:27:57.161Z,1012.8
2022-10-06T10:28:58.146Z,1012.8
2022-10-06T10:29:59.491Z,1012.9
2022-10-06T10:31:01.157Z,1012.9
2022-10-06T10:32:02.219Z,1012.8
2022-10-06T10:33:04.178Z,1012.8
2022-10-06T10:34:12.280Z,1012.8
2022-10-06T10:35:06.199Z,1012.8
2022-10-06T10:36:07.179Z,1012.9
2022-10-06T10:37:09.178Z,1012.9
2022-10-06T10:38:14.504Z,1012.9
2022-10-06T10:39:11.138Z,1012.9
2022-10-06T10:40:12.153Z,1012.9
2022-10-06T10:41:13.063Z,1012.9
2022-10-06T10:42:14.198Z,1013
2022-10-06T10:43:15.199Z,1013
2022-10-06T10:44:16.219Z,1013
2022-10-06T10:45:17.163Z,1013
2022-10-06T10:46:18.294Z,1013
2022-10-06T10:47:20.100Z,1013
2022-10-06T10:48:21.147Z,1013.1
2022-10-06T10:49:22.140Z,1013
2022-10-06T10:50:23.119Z,1013.1
2022-10-06T10:51:24.159Z,1013.1
2022-10-06T10:52:25.099Z,1013.1
2022-10-06T10:53:26.205Z,1013.1
2022-10-06T10:54:27.238Z,1013.1
2022-10-06T10:55:29.138Z,1013.1
2022-10-06T10:56:30.199Z,1013.2
2022-10-06T10:57:31.159Z,1013.1
2022-10-06T10:58:32.123Z,1013.1
2022-10-06T10:59:33.181Z,1013.1
2022-10-06T11:00:34.278Z,1013.1
2022-10-06T11:01:36.190Z,1013.1
2022-10-06T11:02:38.159Z,1013.2
2022-10-06T11:03:39.139Z,1013.2
2022-10-06T11:04:40.087Z,1013.1
2022-10-06T11:05:41.183Z,1013.2
2022-10-06T11:06:42.139Z,1013.2
2022-10-06T11:07:43.098Z,1013.3
2022-10-06T11:08:44.190Z,1013.3
2022-10-06T11:09:45.226Z,1013.3
2022-10-06T11:10:46.179Z,1013.2
2022-10-06T11:11:51.372Z,1012.9
2022-10-06T11:12:49.190Z,1013.2
2022-10-06T11:13:50.099Z,1013.2
2022-10-06T11:14:51.128Z,1013.3
2022-10-06T11:15:52.397Z,1013.3
2022-10-06T11:16:54.180Z,1013.3
2022-10-06T11:17:55.139Z,1013.3
2022-10-06T11:18:56.208Z,1013.3
2022-10-06T11:19:57.222Z,1013.3
2022-10-06T11:20:58.190Z,1013.3
2022-10-06T11:21:59.241Z,1013.3
2022-10-06T11:23:01.170Z,1013.3
2022-10-06T11:24:02.260Z,1013.4
2022-10-06T11:25:04.355Z,1013.4
2022-10-06T11:26:06.109Z,1013.4
2022-10-06T11:27:07.121Z,1013.5
2022-10-06T11:28:08.328Z,1013.5
2022-10-06T11:29:10.187Z,1013.4
2022-10-06T11:30:11.200Z,1013.4
2022-10-06T11:31:12.193Z,1013.4
2022-10-06T11:32:13.160Z,1013.4
2022-10-06T11:33:14.201Z,1013.5
2022-10-06T11:34:15.239Z,1013.5
2022-10-06T11:35:16.266Z,1013.5
2022-10-06T11:36:17.146Z,1013.4
2022-10-06T11:37:18.218Z,1013.4
2022-10-06T11:38:20.245Z,1013.5
2022-10-06T11:39:22.120Z,1013.5
2022-10-06T11:40:23.184Z,1013.5
2022-10-06T11:41:24.180Z,1013.4
2022-10-06T11:42:25.211Z,1013.5
2022-10-06T11:43:26.219Z,1013.5
2022-10-06T11:44:27.200Z,1013.5
2022-10-06T11:45:28.302Z,1013.4
2022-10-06T11:46:31.714Z,1013.4
2022-10-06T11:47:34.801Z,1013.4
2022-10-06T11:48:32.199Z,1013.4
2022-10-06T11:49:33.157Z,1013.5
2022-10-06T11:50:34.162Z,1013.5
2022-10-06T11:51:35.210Z,1013.5
2022-10-06T11:52:37.230Z,1013.5
2022-10-06T11:53:39.241Z,1013.4
2022-10-06T11:54:40.227Z,1013.5
2022-10-06T11:55:41.179Z,1013.5
2022-10-06T11:56:42.220Z,1013.4
2022-10-06T11:57:43.221Z,1013.4
2022-10-06T11:58:44.198Z,1013.4
2022-10-06T11:59:45.221Z,1013.4
2022-10-06T12:00:46.186Z,1013.5
2022-10-06T12:01:47.149Z,1013.4
2022-10-06T12:02:48.288Z,1013.4
2022-10-06T12:03:49.259Z,1013.4
2022-10-06T12:04:50.228Z,1013.5
2022-10-06T12:05:58.414Z,1013.5
2022-10-06T12:06:52.639Z,1013.5
2022-10-06T12:07:54.181Z,1013.5
2022-10-06T12:08:55.179Z,1013.5
2022-10-06T12:09:56.270Z,1013.5
2022-10-06T12:10:57.239Z,1013.6
2022-10-06T12:11:58.179Z,1013.6
2022-10-06T12:13:06.993Z,1013.5
2022-10-06T12:17:11.623Z,1013.6
2022-10-06T12:18:06.180Z,1013.6
2022-10-06T12:19:07.206Z,1013.6
2022-10-06T12:20:08.319Z,1013.7
2022-10-06T12:21:10.220Z,1013.6
2022-10-06T12:22:11.179Z,1013.6
2022-10-06T12:23:12.228Z,1013.7
2022-10-06T12:25:14.391Z,1013.7
2022-10-06T12:26:16.278Z,1013.7
2022-10-06T12:27:19.777Z,1013.7
2022-10-06T12:28:20.244Z,1013.8
2022-10-06T12:29:21.213Z,1013.8
2022-10-06T12:30:22.259Z,1013.8
2022-10-06T12:31:23.260Z,1013.8
2022-10-06T12:32:24.281Z,1013.8
2022-10-06T12:33:25.259Z,1013.9
2022-10-06T12:34:27.221Z,1013.9
2022-10-06T12:35:28.220Z,1013.9
2022-10-06T12:36:29.332Z,1013.8
2022-10-06T12:37:31.219Z,1013.8
2022-10-06T12:38:32.228Z,1013.8
2022-10-06T12:39:33.220Z,1013.8
2022-10-06T12:40:34.245Z,1013.9
2022-10-06T12:41:35.227Z,1013.9
2022-10-06T12:42:36.258Z,1013.9
2022-10-06T12:43:38.269Z,1013.9
2022-10-06T12:44:40.179Z,1013.9
2022-10-06T12:45:45.772Z,1013.9
2022-10-06T12:46:42.254Z,1013.9
2022-10-06T12:47:43.200Z,1013.9
2022-10-06T12:48:44.198Z,1014
2022-10-06T12:49:45.259Z,1013.3
2022-10-06T12:50:46.174Z,1013.7
2022-10-06T12:51:47.240Z,1013.9
2022-10-06T12:52:48.338Z,1013.9
2022-10-06T12:53:50.180Z,1014
2022-10-06T12:54:51.218Z,1014
2022-10-06T12:55:52.290Z,1014